Pagrindinis puslapis
METAR-TAF:

METAR-TAF

Oro uostai :

Japas, Mikronezija

platuma: 09-29N, ilguma: 138-05E, Aukštis: 28 m

Dabartinis oras

Ataskaita buvo paskelbta 29 minutes, ne 20:50 UTC
Ramus vėjas
Temperatūra 26°C
Drėgmė 94%
Slėgis 1011 hPa
Matomumas: 19.3 km
Mažai debesys ne aukštis 1600 ft, Liūtiniai kamuoliniai debesys.
Išsisklaidę debesys ne aukštis 13000 ft
Su prošvaistėmis ne aukštis 30000 ft

METAR: PTYA 202050Z 00000KT 12SM FEW016CB SCT130 BKN300 26/25 A2984 RMK SHRAE10 CB S-W SLP105 60022 8/973 T02610249 52007

Laikas: 07:19 (21:19 UTC)

Prognozė

Ataskaita buvo paskelbta 3 valandos ir 53 minutes, ne 17:26 UTC
Prognozė galioja nuo 20 metu 18 UTC su 21 metu 18 UTC
Vėjas 10 kt iš Šiaurės Vakarų
Matomumas: 10 km
Išsisklaidę debesys ne aukštis 1600 ft
Su prošvaistėmis ne aukštis 13000 ft
Liūtis kaimynystėje

TAF: PTYA 201726Z 2018/2118 31010KT P6SM VCSH SCT016 BKN130

Orai ataskaitas ir orų prognozės (METAR, TAF).

turimą stotys yra geltonos ir raudonos taškus žemėlapyje.

Perkelti pele per norėdami pamatyti stoties vardą.

Tada spustelėkite, norėdami matyti oro stebėjimo ir prognozės.

Norėdami pakeisti žemėlapį: spustelėkite ant žalios mygtukų su juodo kryžiaus žemyn,; žalią mygtuką su brūkšneliu, jei norite nutolinti; arba žalių rodyklių gretimoms žemėlapius.


METAR-TAF: